Time;durP1;ratioP1;P1;durP2;ratioP2;P2;SDS_P1;SDS_P2;PMS_P1;PMS_P2;Temp;Humidity;BMP_temperature;BMP_pressure;BME280_temperature;BME280_humidity;BME280_pressure;Samples;Min_cycle;Max_cycle;Signal;HPM_P1;HPM_P2
2023/04/13 00:02:02;;;;;;;1.50;1.40;;;;;;;;;;5011570;28;20255;-45
2023/04/13 00:04:30;;;;;;;1.30;1.20;;;;;;;;;;5011504;28;20172;-45
2023/04/13 00:06:57;;;;;;;3.00;1.70;;;;;;;;;;5010468;28;20263;-45
2023/04/13 00:09:24;;;;;;;1.55;1.40;;;;;;;;;;5011430;28;20639;-45
2023/04/13 00:11:51;;;;;;;1.65;1.55;;;;;;;;;;5011911;28;20180;-45
2023/04/13 00:14:19;;;;;;;1.83;1.60;;;;;;;;;;5014316;28;20242;-45
2023/04/13 00:16:46;;;;;;;1.73;1.42;;;;;;;;;;5009543;28;20921;-45
2023/04/13 00:19:12;;;;;;;2.13;1.40;;;;;;;;;;5014763;28;20211;-45
2023/04/13 00:21:40;;;;;;;1.55;1.45;;;;;;;;;;5014379;28;20179;-45
2023/04/13 00:24:07;;;;;;;1.43;1.30;;;;;;;;;;5014919;28;20172;-45
2023/04/13 00:26:33;;;;;;;1.67;1.30;;;;;;;;;;5014800;28;20832;-45
2023/04/13 00:28:59;;;;;;;1.50;1.40;;;;;;;;;;5013678;28;20204;-45
2023/04/13 00:31:25;;;;;;;9.20;1.87;;;;;;;;;;5014897;28;20169;-45
2023/04/13 00:33:51;;;;;;;2.23;1.40;;;;;;;;;;5014817;28;20508;-45
2023/04/13 00:36:17;;;;;;;1.60;1.50;;;;;;;;;;5014274;28;20404;-45
2023/04/13 00:38:43;;;;;;;1.70;1.60;;;;;;;;;;5013967;28;20442;-44
2023/04/13 00:41:11;;;;;;;2.03;1.20;;;;;;;;;;5014596;28;20403;-45
2023/04/13 00:43:37;;;;;;;1.30;1.20;;;;;;;;;;5014439;28;20412;-45
2023/04/13 00:46:04;;;;;;;1.93;1.77;;;;;;;;;;5014584;28;20211;-45
2023/04/13 00:48:30;;;;;;;1.90;1.30;;;;;;;;;;5013827;28;20436;-45
2023/04/13 00:50:56;;;;;;;4.27;1.90;;;;;;;;;;5014375;28;20418;-44
2023/04/13 00:53:23;;;;;;;1.67;1.30;;;;;;;;;;5014128;28;20502;-45
2023/04/13 00:55:49;;;;;;;3.23;1.40;;;;;;;;;;5010825;28;20411;-45
2023/04/13 00:58:15;;;;;;;2.00;1.35;;;;;;;;;;5018527;28;20446;-46
2023/04/13 01:00:42;;;;;;;1.42;1.33;;;;;;;;;;5011295;28;20203;-46
2023/04/13 01:03:08;;;;;;;1.75;1.65;;;;;;;;;;5013140;28;20176;-46
2023/04/13 01:05:41;;;;;;;1.67;1.55;;;;;;;;;;5013599;28;20176;-46
2023/04/13 01:08:14;;;;;;;1.60;1.50;;;;;;;;;;5013652;28;20196;-46
2023/04/13 01:10:49;;;;;;;2.75;1.92;;;;;;;;;;5014128;28;20164;-46
2023/04/13 01:13:18;;;;;;;2.65;1.60;;;;;;;;;;5013999;28;20222;-46
2023/04/13 01:15:51;;;;;;;1.80;1.40;;;;;;;;;;5013934;28;20225;-46
2023/04/13 01:18:17;;;;;;;2.25;1.50;;;;;;;;;;5013473;28;20684;-46
2023/04/13 01:20:45;;;;;;;6.53;2.60;;;;;;;;;;5013805;28;20260;-46
2023/04/13 01:23:23;;;;;;;2.35;1.05;;;;;;;;;;5013563;28;20714;-45
2023/04/13 01:25:56;;;;;;;2.60;1.67;;;;;;;;;;5013834;28;20272;-47
2023/04/13 01:28:23;;;;;;;3.63;1.77;;;;;;;;;;5013792;28;20262;-46
2023/04/13 01:30:49;;;;;;;1.70;1.60;;;;;;;;;;5014321;28;20176;-47
2023/04/13 01:33:15;;;;;;;2.03;1.50;;;;;;;;;;5013674;28;20281;-46
2023/04/13 01:35:42;;;;;;;4.90;1.85;;;;;;;;;;5013642;28;20204;-46
2023/04/13 01:38:08;;;;;;;2.30;1.50;;;;;;;;;;5013090;28;20204;-47
2023/04/13 01:40:39;;;;;;;1.42;1.33;;;;;;;;;;5013378;28;20176;-47
2023/04/13 01:43:06;;;;;;;2.42;1.48;;;;;;;;;;5013490;28;20175;-46
2023/04/13 01:45:50;;;;;;;5.10;1.60;;;;;;;;;;5013053;28;20230;-46
2023/04/13 01:48:21;;;;;;;1.50;1.40;;;;;;;;;;5013058;28;20200;-46
2023/04/13 01:51:08;;;;;;;5.55;1.90;;;;;;;;;;5013193;28;20191;-45
2023/04/13 01:53:39;;;;;;;1.50;1.40;;;;;;;;;;5007993;28;20692;-46
2023/04/13 01:56:05;;;;;;;4.40;1.52;;;;;;;;;;5013105;28;20184;-46
2023/04/13 01:58:32;;;;;;;1.52;1.42;;;;;;;;;;5011885;28;20563;-46
2023/04/13 02:00:58;;;;;;;2.55;1.58;;;;;;;;;;5020521;28;20173;-46
2023/04/13 02:03:25;;;;;;;1.40;1.17;;;;;;;;;;5013037;28;20183;-46
2023/04/13 02:05:51;;;;;;;1.30;1.20;;;;;;;;;;5013047;28;20180;-46
2023/04/13 02:08:19;;;;;;;2.08;1.63;;;;;;;;;;5012574;28;20200;-46
2023/04/13 02:10:45;;;;;;;1.50;1.20;;;;;;;;;;5012863;28;20176;-46
2023/04/13 02:13:12;;;;;;;2.35;1.40;;;;;;;;;;5012741;28;20558;-46
2023/04/13 02:15:38;;;;;;;2.38;1.98;;;;;;;;;;5012813;28;20160;-46
2023/04/13 02:18:04;;;;;;;2.20;1.45;;;;;;;;;;5012441;28;20671;-46
2023/04/13 02:20:37;;;;;;;1.50;1.40;;;;;;;;;;5012745;28;20176;-46
2023/04/13 02:23:03;;;;;;;1.70;1.60;;;;;;;;;;5010444;28;20179;-46
2023/04/13 02:25:29;;;;;;;2.07;1.60;;;;;;;;;;5012661;28;20653;-46
2023/04/13 02:27:56;;;;;;;2.13;1.50;;;;;;;;;;5012210;28;20431;-46
2023/04/13 02:30:22;;;;;;;5.95;1.60;;;;;;;;;;5012244;28;20554;-46
2023/04/13 02:32:48;;;;;;;1.40;1.30;;;;;;;;;;5011372;28;20192;-46
2023/04/13 02:35:14;;;;;;;2.45;1.40;;;;;;;;;;5014943;28;20922;-46
2023/04/13 02:37:41;;;;;;;1.60;1.50;;;;;;;;;;5009566;28;20584;-45
2023/04/13 02:40:11;;;;;;;1.85;1.45;;;;;;;;;;5011390;28;20218;-46
2023/04/13 02:42:41;;;;;;;3.40;1.60;;;;;;;;;;5011931;28;20603;-45
2023/04/13 02:45:11;;;;;;;1.48;1.38;;;;;;;;;;5009615;28;20176;-46
2023/04/13 02:47:37;;;;;;;3.95;1.88;;;;;;;;;;5011975;28;20212;-45
2023/04/13 02:50:04;;;;;;;1.42;1.20;;;;;;;;;;5012216;28;20652;-46
2023/04/13 02:52:30;;;;;;;6.53;1.40;;;;;;;;;;5012341;28;20178;-45
2023/04/13 02:54:57;;;;;;;2.08;1.65;;;;;;;;;;5012333;28;20200;-45
2023/04/13 02:57:24;;;;;;;2.70;1.30;;;;;;;;;;5011427;28;20231;-45
2023/04/13 02:59:50;;;;;;;3.53;1.60;;;;;;;;;;5010229;28;20207;-46
2023/04/13 03:02:16;;;;;;;1.60;1.50;;;;;;;;;;5010207;28;20226;-46
2023/04/13 03:04:43;;;;;;;1.85;1.30;;;;;;;;;;5007148;28;20234;-46
2023/04/13 03:07:09;;;;;;;3.97;1.30;;;;;;;;;;5011724;28;20206;-46
2023/04/13 03:09:35;;;;;;;4.30;1.53;;;;;;;;;;5011871;28;20176;-46
2023/04/13 03:12:01;;;;;;;2.60;1.90;;;;;;;;;;5010493;28;20911;-46
2023/04/13 03:14:28;;;;;;;4.40;1.65;;;;;;;;;;5012041;28;20196;-46
2023/04/13 03:16:54;;;;;;;3.08;2.15;;;;;;;;;;5011537;28;20707;-46
2023/04/13 03:19:20;;;;;;;6.22;1.77;;;;;;;;;;5011765;28;20670;-46
2023/04/13 03:21:47;;;;;;;3.80;1.80;;;;;;;;;;5011861;28;20180;-46
2023/04/13 03:24:13;;;;;;;1.50;1.40;;;;;;;;;;5013879;28;20480;-46
2023/04/13 03:26:39;;;;;;;1.50;1.40;;;;;;;;;;5014398;28;20589;-46
2023/04/13 03:29:05;;;;;;;2.80;1.90;;;;;;;;;;5011559;28;20459;-46
2023/04/13 03:31:31;;;;;;;1.63;1.52;;;;;;;;;;5012182;28;20227;-46
2023/04/13 03:33:57;;;;;;;2.27;1.60;;;;;;;;;;5012124;28;20683;-46
2023/04/13 03:36:24;;;;;;;1.60;1.50;;;;;;;;;;5007045;28;20423;-46
2023/04/13 03:38:50;;;;;;;5.30;1.90;;;;;;;;;;5010954;28;20451;-46
2023/04/13 03:41:16;;;;;;;2.22;1.85;;;;;;;;;;5009566;28;20172;-46
2023/04/13 03:43:42;;;;;;;1.40;1.30;;;;;;;;;;5007977;28;20232;-46
2023/04/13 03:46:08;;;;;;;1.57;1.47;;;;;;;;;;5012596;28;20419;-46
2023/04/13 03:48:34;;;;;;;1.37;1.27;;;;;;;;;;5015169;28;20750;-46
2023/04/13 03:51:00;;;;;;;3.20;1.60;;;;;;;;;;5015545;28;20411;-45
2023/04/13 03:53:26;;;;;;;2.15;1.60;;;;;;;;;;5017473;28;20191;-46
2023/04/13 03:55:52;;;;;;;1.53;1.43;;;;;;;;;;5015970;28;20595;-46
2023/04/13 03:58:18;;;;;;;2.95;1.65;;;;;;;;;;5015432;28;20435;-46
2023/04/13 04:00:44;;;;;;;2.60;1.67;;;;;;;;;;5015220;28;20191;-46
2023/04/13 04:03:10;;;;;;;4.50;1.73;;;;;;;;;;5015288;28;20423;-46
2023/04/13 04:05:39;;;;;;;2.20;1.90;;;;;;;;;;5014945;28;20252;-45
2023/04/13 04:08:05;;;;;;;2.97;1.67;;;;;;;;;;5014896;28;20544;-45
2023/04/13 04:10:31;;;;;;;1.60;1.50;;;;;;;;;;5015137;28;20176;-45
2023/04/13 04:12:57;;;;;;;3.07;1.90;;;;;;;;;;5015014;28;20203;-46
2023/04/13 04:15:23;;;;;;;1.98;1.88;;;;;;;;;;5015054;28;20942;-45
2023/04/13 04:17:50;;;;;;;2.50;2.00;;;;;;;;;;5014525;28;20205;-45
2023/04/13 04:20:17;;;;;;;1.80;1.70;;;;;;;;;;5014831;28;20411;-45
2023/04/13 04:22:43;;;;;;;3.20;1.70;;;;;;;;;;5014553;28;20258;-46
2023/04/13 04:25:10;;;;;;;3.35;1.70;;;;;;;;;;5014892;28;20176;-45
2023/04/13 04:27:37;;;;;;;2.38;1.70;;;;;;;;;;5011849;28;20736;-45
2023/04/13 04:30:04;;;;;;;1.73;1.63;;;;;;;;;;5014721;28;20179;-45
2023/04/13 04:32:32;;;;;;;2.85;1.63;;;;;;;;;;5014760;28;20168;-46
2023/04/13 04:34:59;;;;;;;1.98;1.73;;;;;;;;;;5006894;28;20282;-46
2023/04/13 04:37:25;;;;;;;1.60;1.50;;;;;;;;;;5012590;28;20205;-45
2023/04/13 04:39:52;;;;;;;2.60;1.93;;;;;;;;;;5013316;28;20772;-46
2023/04/13 04:42:18;;;;;;;6.93;1.77;;;;;;;;;;5014628;28;20499;-46
2023/04/13 04:44:46;;;;;;;2.45;1.50;;;;;;;;;;5014316;28;20176;-46
2023/04/13 04:47:12;;;;;;;2.00;1.90;;;;;;;;;;5014281;28;20188;-46
2023/04/13 04:49:38;;;;;;;3.08;1.80;;;;;;;;;;5014386;28;20191;-46
2023/04/13 04:52:05;;;;;;;2.00;1.60;;;;;;;;;;5014735;28;20206;-45
2023/04/13 04:54:31;;;;;;;5.10;2.05;;;;;;;;;;5017106;28;20200;-46
2023/04/13 04:57:00;;;;;;;1.70;1.60;;;;;;;;;;5005961;28;20283;-46
2023/04/13 04:59:27;;;;;;;2.30;1.80;;;;;;;;;;5013649;28;20431;-46
2023/04/13 05:01:53;;;;;;;1.85;1.75;;;;;;;;;;5014223;28;20617;-46
2023/04/13 05:04:19;;;;;;;4.60;1.70;;;;;;;;;;5014333;28;20168;-46
2023/04/13 05:06:45;;;;;;;2.27;2.07;;;;;;;;;;5012638;28;20407;-46
2023/04/13 05:09:12;;;;;;;2.47;2.35;;;;;;;;;;5013886;28;20431;-46
2023/04/13 05:11:38;;;;;;;2.03;1.83;;;;;;;;;;5014004;28;20644;-46
2023/04/13 05:14:04;;;;;;;2.80;2.53;;;;;;;;;;5013796;28;20209;-46
2023/04/13 05:16:32;;;;;;;3.13;2.20;;;;;;;;;;5007051;28;20470;-44
2023/04/13 05:18:59;;;;;;;2.25;2.05;;;;;;;;;;5012255;28;20188;-45
2023/04/13 05:21:25;;;;;;;1.98;1.70;;;;;;;;;;5010642;28;20230;-44
2023/04/13 05:23:52;;;;;;;3.00;2.63;;;;;;;;;;5020576;28;20192;-45
2023/04/13 05:26:19;;;;;;;2.03;1.90;;;;;;;;;;5013734;28;20176;-45
2023/04/13 05:28:45;;;;;;;3.83;2.58;;;;;;;;;;5013303;28;20668;-45
2023/04/13 05:31:11;;;;;;;2.13;2.03;;;;;;;;;;5005991;28;20172;-45
2023/04/13 05:33:37;;;;;;;9.13;2.77;;;;;;;;;;5012356;28;20463;-46
2023/04/13 05:36:03;;;;;;;2.60;2.03;;;;;;;;;;5013732;28;20767;-45
2023/04/13 05:38:29;;;;;;;1.95;1.83;;;;;;;;;;5013124;28;20442;-46
2023/04/13 05:40:57;;;;;;;2.90;2.30;;;;;;;;;;5012174;28;20578;-46
2023/04/13 05:43:23;;;;;;;2.42;2.10;;;;;;;;;;5013503;28;20419;-46
2023/04/13 05:45:49;;;;;;;4.47;2.70;;;;;;;;;;5013378;28;20242;-46
2023/04/13 05:48:15;;;;;;;2.58;2.30;;;;;;;;;;5013086;28;20427;-46
2023/04/13 05:50:42;;;;;;;2.63;2.00;;;;;;;;;;5012844;28;20185;-46
2023/04/13 05:53:08;;;;;;;1.80;1.70;;;;;;;;;;5010590;28;20521;-46
2023/04/13 05:55:34;;;;;;;2.35;2.15;;;;;;;;;;5012143;28;20181;-45
2023/04/13 05:58:02;;;;;;;8.02;2.15;;;;;;;;;;5012488;28;20200;-46
2023/04/13 06:00:28;;;;;;;2.60;2.17;;;;;;;;;;5010432;28;20521;-45
2023/04/13 06:02:55;;;;;;;3.97;2.25;;;;;;;;;;5012986;28;20204;-46
2023/04/13 06:05:23;;;;;;;2.90;2.25;;;;;;;;;;5014090;28;20168;-45
2023/04/13 06:07:49;;;;;;;2.88;2.28;;;;;;;;;;5012317;28;20188;-46
2023/04/13 06:10:18;;;;;;;2.63;2.43;;;;;;;;;;5012051;28;20165;-45
2023/04/13 06:12:47;;;;;;;3.60;2.10;;;;;;;;;;5012786;28;20410;-46
2023/04/13 06:15:13;;;;;;;2.50;2.20;;;;;;;;;;5011622;28;20479;-46
2023/04/13 06:17:39;;;;;;;2.33;2.17;;;;;;;;;;5012154;28;20440;-45
2023/04/13 06:20:06;;;;;;;3.80;2.23;;;;;;;;;;5013429;28;20483;-45
2023/04/13 06:22:32;;;;;;;2.00;1.90;;;;;;;;;;5015857;28;20407;-45
2023/04/13 06:24:58;;;;;;;2.10;1.97;;;;;;;;;;5012649;28;20779;-46
2023/04/13 06:27:24;;;;;;;4.70;2.27;;;;;;;;;;5012177;28;20427;-45
2023/04/13 06:29:50;;;;;;;3.83;2.50;;;;;;;;;;5012614;28;20443;-45
2023/04/13 06:32:16;;;;;;;1.73;1.63;;;;;;;;;;5012445;28;20412;-45
2023/04/13 06:34:44;;;;;;;4.27;2.50;;;;;;;;;;5012360;28;20539;-45
2023/04/13 06:37:10;;;;;;;1.70;1.60;;;;;;;;;;5011652;28;20490;-45
2023/04/13 06:39:36;;;;;;;3.07;2.77;;;;;;;;;;5012438;28;20418;-46
2023/04/13 06:42:03;;;;;;;2.10;1.73;;;;;;;;;;5011198;28;20853;-46
2023/04/13 06:44:29;;;;;;;2.60;1.97;;;;;;;;;;5012348;28;20413;-45
2023/04/13 06:46:55;;;;;;;2.53;1.67;;;;;;;;;;5011785;28;20412;-45
2023/04/13 06:49:21;;;;;;;1.80;1.70;;;;;;;;;;5013864;28;20444;-45
2023/04/13 06:51:47;;;;;;;2.70;1.77;;;;;;;;;;5016955;28;20436;-45
2023/04/13 06:54:13;;;;;;;1.93;1.60;;;;;;;;;;5012177;28;20552;-45
2023/04/13 06:56:39;;;;;;;1.90;1.60;;;;;;;;;;5011842;28;20414;-45
2023/04/13 06:59:05;;;;;;;3.53;1.80;;;;;;;;;;5012158;28;20512;-45
2023/04/13 07:01:31;;;;;;;2.10;1.87;;;;;;;;;;5009304;28;20883;-45
2023/04/13 07:03:57;;;;;;;8.03;1.80;;;;;;;;;;5010351;28;20444;-45
2023/04/13 07:06:23;;;;;;;2.40;1.70;;;;;;;;;;5009391;28;20460;-45
2023/04/13 07:08:49;;;;;;;4.90;2.13;;;;;;;;;;5011424;28;20433;-45
2023/04/13 07:11:15;;;;;;;2.53;1.83;;;;;;;;;;5011932;28;20418;-45
2023/04/13 07:13:41;;;;;;;3.10;1.73;;;;;;;;;;5011770;28;20868;-45
2023/04/13 07:16:08;;;;;;;3.17;2.00;;;;;;;;;;5011565;28;20505;-45
2023/04/13 07:18:34;;;;;;;2.70;2.20;;;;;;;;;;5010904;28;20811;-45
2023/04/13 07:21:00;;;;;;;3.17;1.90;;;;;;;;;;5006732;28;20836;-45
2023/04/13 07:23:26;;;;;;;2.20;1.90;;;;;;;;;;5007777;28;20403;-45
2023/04/13 07:25:52;;;;;;;2.93;2.40;;;;;;;;;;5013205;28;20415;-45
2023/04/13 07:28:18;;;;;;;4.07;1.80;;;;;;;;;;5011307;28;20455;-45
2023/04/13 07:30:45;;;;;;;1.90;1.80;;;;;;;;;;5011642;28;20419;-45
2023/04/13 07:33:11;;;;;;;2.17;1.37;;;;;;;;;;5011625;28;20463;-45
2023/04/13 07:35:37;;;;;;;1.73;1.47;;;;;;;;;;5014819;28;20574;-45
2023/04/13 07:38:03;;;;;;;3.63;1.63;;;;;;;;;;5002795;28;20819;-45
2023/04/13 07:40:29;;;;;;;2.30;1.50;;;;;;;;;;5010077;28;20492;-45
2023/04/13 07:42:56;;;;;;;5.90;1.57;;;;;;;;;;5008423;28;20411;-45
2023/04/13 07:45:22;;;;;;;3.43;1.70;;;;;;;;;;5011312;28;20417;-45
2023/04/13 07:47:48;;;;;;;4.00;1.80;;;;;;;;;;5009015;28;20433;-45
2023/04/13 07:50:15;;;;;;;3.20;1.40;;;;;;;;;;5016880;28;20424;-45
2023/04/13 07:52:41;;;;;;;5.33;1.50;;;;;;;;;;5011063;28;20413;-45
2023/04/13 07:55:08;;;;;;;2.20;1.30;;;;;;;;;;5011336;28;20994;-45
2023/04/13 07:57:35;;;;;;;2.43;1.83;;;;;;;;;;5011046;28;20426;-45
2023/04/13 08:00:01;;;;;;;1.40;1.30;;;;;;;;;;5011328;28;21021;-45
2023/04/13 08:02:27;;;;;;;3.50;1.80;;;;;;;;;;5011285;28;20508;-45
2023/04/13 08:04:53;;;;;;;2.33;1.43;;;;;;;;;;5007274;28;20420;-45
2023/04/13 08:07:21;;;;;;;10.03;1.80;;;;;;;;;;5006053;28;20424;-45
2023/04/13 08:09:48;;;;;;;3.33;1.77;;;;;;;;;;5010221;28;20416;-45
2023/04/13 08:12:15;;;;;;;1.70;1.60;;;;;;;;;;5011227;28;20422;-45
2023/04/13 08:14:41;;;;;;;2.57;1.50;;;;;;;;;;5011101;28;20469;-45
2023/04/13 08:17:07;;;;;;;3.97;1.80;;;;;;;;;;5008853;28;20462;-45
2023/04/13 08:19:34;;;;;;;3.47;2.43;;;;;;;;;;5016602;28;20422;-45
2023/04/13 08:22:00;;;;;;;2.27;2.07;;;;;;;;;;5009985;28;20407;-45
2023/04/13 08:24:27;;;;;;;2.63;1.60;;;;;;;;;;5011269;28;20895;-44
2023/04/13 08:26:54;;;;;;;1.70;1.60;;;;;;;;;;5010826;28;20465;-45
2023/04/13 08:29:23;;;;;;;2.07;1.73;;;;;;;;;;5011397;28;20411;-45
2023/04/13 08:31:49;;;;;;;3.53;2.10;;;;;;;;;;5012092;28;20565;-45
2023/04/13 08:34:18;;;;;;;3.73;1.87;;;;;;;;;;5010908;28;20538;-45
2023/04/13 08:36:47;;;;;;;1.70;1.60;;;;;;;;;;5010934;28;20499;-46
2023/04/13 08:39:13;;;;;;;7.23;2.57;;;;;;;;;;5014024;28;20446;-45
2023/04/13 08:41:43;;;;;;;3.37;1.83;;;;;;;;;;5014540;28;20404;-45
2023/04/13 08:44:10;;;;;;;3.80;1.80;;;;;;;;;;5014479;28;20480;-45
2023/04/13 08:46:37;;;;;;;4.83;2.20;;;;;;;;;;5014317;28;20411;-46
2023/04/13 08:49:03;;;;;;;1.70;1.60;;;;;;;;;;5013234;28;20431;-44
2023/04/13 08:51:32;;;;;;;2.03;1.70;;;;;;;;;;5014451;28;20421;-44
2023/04/13 08:53:59;;;;;;;2.90;2.00;;;;;;;;;;5005516;28;20874;-45
2023/04/13 08:56:26;;;;;;;2.70;1.80;;;;;;;;;;5017017;28;20828;-45
2023/04/13 08:58:52;;;;;;;2.10;1.90;;;;;;;;;;5013533;28;20525;-45
2023/04/13 09:01:19;;;;;;;2.20;2.00;;;;;;;;;;5014247;28;20464;-45
2023/04/13 09:03:52;;;;;;;2.20;2.10;;;;;;;;;;5013216;28;20414;-45
2023/04/13 09:06:22;;;;;;;4.60;2.67;;;;;;;;;;5014020;28;20441;-44
2023/04/13 09:08:49;;;;;;;2.53;2.00;;;;;;;;;;5013704;28;20707;-45
2023/04/13 09:11:15;;;;;;;2.40;2.13;;;;;;;;;;5013814;28;20462;-44
2023/04/13 09:13:47;;;;;;;4.07;1.77;;;;;;;;;;5013914;28;20469;-45
2023/04/13 09:16:13;;;;;;;3.90;2.47;;;;;;;;;;5013280;28;20506;-45
2023/04/13 09:18:52;;;;;;;2.90;2.30;;;;;;;;;;5013579;28;20455;-44
2023/04/13 09:21:18;;;;;;;7.80;2.57;;;;;;;;;;5014807;28;20407;-45
2023/04/13 09:23:53;;;;;;;2.40;2.00;;;;;;;;;;5015143;28;20477;-45
2023/04/13 09:26:20;;;;;;;2.20;2.00;;;;;;;;;;5008787;28;20903;-44
2023/04/13 09:28:46;;;;;;;3.00;2.70;;;;;;;;;;5013304;28;20509;-45
2023/04/13 09:31:14;;;;;;;6.23;3.00;;;;;;;;;;5011005;28;20416;-46
2023/04/13 09:33:47;;;;;;;5.33;3.60;;;;;;;;;;5011075;28;20470;-45
2023/04/13 09:36:14;;;;;;;5.90;2.97;;;;;;;;;;5013294;28;20421;-45
2023/04/13 09:38:42;;;;;;;2.63;2.43;;;;;;;;;;5012823;28;20885;-45
2023/04/13 09:41:08;;;;;;;3.30;3.03;;;;;;;;;;5013350;28;20500;-45
2023/04/13 09:43:38;;;;;;;4.60;2.70;;;;;;;;;;5012342;28;20919;-45
2023/04/13 09:46:04;;;;;;;2.83;2.63;;;;;;;;;;5013245;28;20406;-45
2023/04/13 09:48:31;;;;;;;8.00;3.27;;;;;;;;;;5012396;28;20987;-45
2023/04/13 09:51:05;;;;;;;5.00;2.73;;;;;;;;;;5013537;28;20453;-45
2023/04/13 09:53:41;;;;;;;5.70;3.40;;;;;;;;;;5014980;28;20504;-46
2023/04/13 09:56:08;;;;;;;9.63;2.40;;;;;;;;;;5005739;28;20457;-45
2023/04/13 09:58:37;;;;;;;4.20;2.37;;;;;;;;;;5011740;28;20435;-45
2023/04/13 10:01:03;;;;;;;4.30;2.57;;;;;;;;;;5012913;28;20826;-45
2023/04/13 10:03:30;;;;;;;9.20;2.47;;;;;;;;;;5012362;28;20417;-45
2023/04/13 10:05:57;;;;;;;5.33;2.03;;;;;;;;;;5012864;28;20410;-47
2023/04/13 10:08:24;;;;;;;6.23;2.50;;;;;;;;;;5012550;28;20426;-45
2023/04/13 10:10:51;;;;;;;6.27;2.00;;;;;;;;;;5012858;28;20442;-45
2023/04/13 10:13:22;;;;;;;2.50;1.60;;;;;;;;;;5012102;28;20437;-45
2023/04/13 10:15:48;;;;;;;7.03;3.20;;;;;;;;;;5012435;28;20446;-45
2023/04/13 10:18:21;;;;;;;3.50;2.10;;;;;;;;;;5015111;28;20549;-44
2023/04/13 10:20:48;;;;;;;4.93;1.73;;;;;;;;;;5008304;28;20942;-46
2023/04/13 10:23:14;;;;;;;3.10;1.67;;;;;;;;;;5012632;28;20908;-45
2023/04/13 10:25:53;;;;;;;3.10;2.37;;;;;;;;;;5011873;28;20399;-45
2023/04/13 10:28:19;;;;;;;11.63;2.33;;;;;;;;;;5012340;28;20431;-45
2023/04/13 10:30:49;;;;;;;2.13;2.00;;;;;;;;;;5012273;28;20467;-44
2023/04/13 10:33:15;;;;;;;3.23;2.10;;;;;;;;;;5012562;28;20573;-45
2023/04/13 10:35:41;;;;;;;5.57;2.13;;;;;;;;;;5012428;28;20487;-45
2023/04/13 10:38:09;;;;;;;7.47;2.30;;;;;;;;;;5011933;28;20959;-45
2023/04/13 10:40:42;;;;;;;4.67;1.60;;;;;;;;;;5011721;28;20418;-45
2023/04/13 10:43:08;;;;;;;11.10;2.97;;;;;;;;;;5011903;28;20415;-45
2023/04/13 10:45:36;;;;;;;3.67;2.30;;;;;;;;;;5012141;28;20420;-45
2023/04/13 10:48:02;;;;;;;4.07;2.37;;;;;;;;;;5011782;28;20433;-45
2023/04/13 10:50:28;;;;;;;6.53;2.40;;;;;;;;;;5012482;28;20510;-45
2023/04/13 10:52:54;;;;;;;7.33;2.47;;;;;;;;;;5012059;28;20419;-44
2023/04/13 10:55:23;;;;;;;4.20;2.23;;;;;;;;;;5010972;28;20470;-45
2023/04/13 10:57:49;;;;;;;8.10;3.13;;;;;;;;;;5009394;28;20470;-45
2023/04/13 11:00:20;;;;;;;9.27;2.57;;;;;;;;;;5011539;28;20434;-46
2023/04/13 11:02:48;;;;;;;4.27;2.57;;;;;;;;;;5006619;28;20443;-46
2023/04/13 11:05:16;;;;;;;11.50;3.47;;;;;;;;;;5009521;28;20423;-47
2023/04/13 11:07:44;;;;;;;4.53;2.80;;;;;;;;;;5011105;28;20431;-45
2023/04/13 11:10:10;;;;;;;10.87;3.00;;;;;;;;;;5011768;28;20411;-44
2023/04/13 11:12:36;;;;;;;9.07;2.70;;;;;;;;;;5011356;28;20408;-44
2023/04/13 11:15:02;;;;;;;4.33;2.70;;;;;;;;;;5009605;28;21032;-45
2023/04/13 11:17:28;;;;;;;8.13;3.07;;;;;;;;;;5007711;28;20437;-45
2023/04/13 11:19:55;;;;;;;9.17;2.23;;;;;;;;;;5009999;28;20802;-44
2023/04/13 11:22:22;;;;;;;7.93;3.47;;;;;;;;;;5012267;28;20422;-44
2023/04/13 11:24:49;;;;;;;3.10;2.20;;;;;;;;;;5012245;28;20508;-44
2023/04/13 11:27:20;;;;;;;6.13;2.30;;;;;;;;;;5012417;28;20430;-45
2023/04/13 11:29:46;;;;;;;5.23;2.40;;;;;;;;;;5012887;28;20415;-46
2023/04/13 11:32:17;;;;;;;7.10;2.23;;;;;;;;;;5012492;28;20425;-45
2023/04/13 11:34:43;;;;;;;7.10;2.60;;;;;;;;;;5012303;28;20508;-45
2023/04/13 11:37:10;;;;;;;5.87;2.40;;;;;;;;;;5011083;28;20405;-45
2023/04/13 11:39:37;;;;;;;10.97;2.83;;;;;;;;;;5012705;28;20411;-45
2023/04/13 11:42:06;;;;;;;5.43;2.80;;;;;;;;;;5011709;28;21100;-45
2023/04/13 11:44:34;;;;;;;8.27;3.20;;;;;;;;;;5011575;28;20484;-45
2023/04/13 11:47:01;;;;;;;4.77;3.07;;;;;;;;;;5011214;28;20412;-45
2023/04/13 11:49:28;;;;;;;11.63;2.90;;;;;;;;;;5010105;28;20430;-44
2023/04/13 11:51:54;;;;;;;6.00;1.97;;;;;;;;;;5011021;28;20411;-45
2023/04/13 11:54:21;;;;;;;11.83;2.93;;;;;;;;;;5009623;28;20510;-45
2023/04/13 11:56:48;;;;;;;13.50;2.93;;;;;;;;;;5011436;28;20775;-46
2023/04/13 11:59:14;;;;;;;7.17;2.70;;;;;;;;;;5011373;28;20436;-45
2023/04/13 12:01:40;;;;;;;7.73;3.00;;;;;;;;;;5011437;28;20458;-44
2023/04/13 12:04:07;;;;;;;10.03;2.97;;;;;;;;;;5011330;28;20416;-44
2023/04/13 12:06:33;;;;;;;11.00;2.67;;;;;;;;;;5011459;28;20417;-45
2023/04/13 12:09:00;;;;;;;5.27;2.60;;;;;;;;;;5017130;28;20535;-45
2023/04/13 12:11:34;;;;;;;4.90;2.20;;;;;;;;;;5015140;28;20491;-44
2023/04/13 12:14:00;;;;;;;3.43;2.00;;;;;;;;;;5013177;28;20561;-45
2023/04/13 12:16:28;;;;;;;5.53;2.00;;;;;;;;;;5012591;28;20502;-45
2023/04/13 12:18:54;;;;;;;7.20;2.00;;;;;;;;;;5013923;28;20482;-45
2023/04/13 12:21:20;;;;;;;2.80;2.03;;;;;;;;;;5015760;28;20405;-44
2023/04/13 12:23:55;;;;;;;6.23;1.83;;;;;;;;;;5016378;28;20925;-44
2023/04/13 12:26:24;;;;;;;7.13;3.37;;;;;;;;;;5016088;28;20469;-44
2023/04/13 12:28:55;;;;;;;6.50;2.63;;;;;;;;;;5015023;28;20816;-45
2023/04/13 12:31:21;;;;;;;6.70;2.30;;;;;;;;;;5013716;28;20414;-45
2023/04/13 12:33:47;;;;;;;2.47;1.90;;;;;;;;;;5014708;28;20544;-45
2023/04/13 12:36:13;;;;;;;5.17;2.20;;;;;;;;;;5014745;28;20410;-45
2023/04/13 12:38:39;;;;;;;8.10;3.83;;;;;;;;;;5020133;28;20831;-45
2023/04/13 12:41:08;;;;;;;7.50;2.43;;;;;;;;;;5009787;28;20437;-45
2023/04/13 12:43:34;;;;;;;4.93;1.90;;;;;;;;;;5014630;28;20850;-45
2023/04/13 12:46:00;;;;;;;4.83;2.30;;;;;;;;;;5015105;28;20458;-44
2023/04/13 12:48:26;;;;;;;3.70;1.90;;;;;;;;;;5014321;28;20911;-44
2023/04/13 12:50:53;;;;;;;5.63;1.80;;;;;;;;;;5015003;28;20414;-46
2023/04/13 12:53:19;;;;;;;6.20;2.07;;;;;;;;;;5014164;28;20421;-46
2023/04/13 12:55:45;;;;;;;3.60;1.77;;;;;;;;;;5014187;28;20963;-46
2023/04/13 12:58:11;;;;;;;4.60;1.97;;;;;;;;;;5007365;28;20414;-46
2023/04/13 13:00:37;;;;;;;7.27;2.00;;;;;;;;;;5015400;28;20490;-46
2023/04/13 13:03:03;;;;;;;7.03;2.10;;;;;;;;;;5014244;28;20540;-46
2023/04/13 13:05:30;;;;;;;7.60;2.33;;;;;;;;;;5014147;28;20415;-46
2023/04/13 13:07:56;;;;;;;8.57;2.13;;;;;;;;;;5013804;28;20458;-45
2023/04/13 13:10:22;;;;;;;4.63;2.13;;;;;;;;;;5014076;28;20877;-45
2023/04/13 13:12:48;;;;;;;9.80;2.27;;;;;;;;;;5014014;28;20441;-46
2023/04/13 13:15:15;;;;;;;3.90;2.10;;;;;;;;;;5014877;28;20451;-46
2023/04/13 13:17:42;;;;;;;6.53;2.70;;;;;;;;;;5015490;28;20409;-45
2023/04/13 13:20:09;;;;;;;5.33;2.30;;;;;;;;;;5013438;28;20410;-46
2023/04/13 13:22:38;;;;;;;11.17;2.87;;;;;;;;;;5013796;28;20959;-46
2023/04/13 13:25:04;;;;;;;6.40;2.57;;;;;;;;;;5013808;28;20402;-45
2023/04/13 13:27:31;;;;;;;6.30;2.13;;;;;;;;;;5013272;28;20455;-46
2023/04/13 13:29:57;;;;;;;6.90;2.50;;;;;;;;;;5013806;28;20459;-46
2023/04/13 13:32:24;;;;;;;6.20;2.77;;;;;;;;;;5012106;28;20907;-46
2023/04/13 13:34:50;;;;;;;10.37;2.30;;;;;;;;;;5013539;28;20979;-45
2023/04/13 13:37:17;;;;;;;7.57;2.03;;;;;;;;;;5012085;28;20455;-45
2023/04/13 13:39:43;;;;;;;6.97;2.53;;;;;;;;;;5008683;28;20378;-45
2023/04/13 13:42:09;;;;;;;4.07;2.47;;;;;;;;;;5013323;28;20408;-45
2023/04/13 13:44:35;;;;;;;5.63;2.17;;;;;;;;;;5011746;28;20460;-45
2023/04/13 13:47:01;;;;;;;9.30;3.47;;;;;;;;;;5013141;28;20635;-46
2023/04/13 13:49:27;;;;;;;7.70;2.73;;;;;;;;;;5012990;28;20392;-46
2023/04/13 13:51:53;;;;;;;5.30;2.20;;;;;;;;;;5013107;28;20419;-46
2023/04/13 13:54:19;;;;;;;6.30;2.27;;;;;;;;;;5012978;28;20463;-46
2023/04/13 13:56:45;;;;;;;6.33;2.60;;;;;;;;;;5013494;28;20422;-45
2023/04/13 13:59:12;;;;;;;2.80;1.67;;;;;;;;;;5011250;28;20434;-45
2023/04/13 14:01:37;;;;;;;5.27;2.43;;;;;;;;;;5011631;28;20434;-45
2023/04/13 14:04:04;;;;;;;3.57;2.33;;;;;;;;;;5015246;28;20429;-45
2023/04/13 14:06:31;;;;;;;5.00;2.40;;;;;;;;;;5009530;28;20390;-45
2023/04/13 14:08:57;;;;;;;5.37;2.63;;;;;;;;;;5011069;28;20428;-45
2023/04/13 14:11:23;;;;;;;7.33;2.30;;;;;;;;;;5012901;28;20392;-45
2023/04/13 14:13:49;;;;;;;5.43;1.80;;;;;;;;;;5011254;28;20471;-45
2023/04/13 14:16:15;;;;;;;9.20;2.90;;;;;;;;;;5012972;28;20502;-45
2023/04/13 14:18:41;;;;;;;3.50;2.23;;;;;;;;;;5012269;28;20430;-45
2023/04/13 14:21:08;;;;;;;3.10;1.90;;;;;;;;;;5012691;28;20415;-46
2023/04/13 14:23:36;;;;;;;9.87;2.50;;;;;;;;;;5012685;28;20784;-45
2023/04/13 14:26:02;;;;;;;7.40;1.90;;;;;;;;;;5012688;28;20829;-46
2023/04/13 14:28:28;;;;;;;3.77;1.70;;;;;;;;;;5010862;28;20526;-45
2023/04/13 14:30:55;;;;;;;3.10;1.63;;;;;;;;;;5011722;28;21023;-46
2023/04/13 14:33:21;;;;;;;3.63;1.77;;;;;;;;;;5012025;28;20455;-45
2023/04/13 14:35:47;;;;;;;4.53;2.13;;;;;;;;;;5012221;28;20462;-46
2023/04/13 14:38:13;;;;;;;4.80;1.93;;;;;;;;;;5011987;28;20442;-45
2023/04/13 14:40:39;;;;;;;2.87;1.87;;;;;;;;;;5011141;28;20873;-45
2023/04/13 14:43:05;;;;;;;4.43;2.10;;;;;;;;;;5012511;28;20435;-45